createdAt,value
2022-08-24T00:02:15.330Z,0.90
2022-08-24T00:07:27.970Z,0.70
2022-08-24T00:12:29.674Z,0.85
2022-08-24T00:17:31.161Z,1.00
2022-08-24T00:22:32.630Z,0.90
2022-08-24T00:27:34.255Z,1.58
2022-08-24T00:32:37.884Z,0.85
2022-08-24T00:37:40.089Z,0.90
2022-08-24T00:42:41.595Z,1.00
2022-08-24T00:47:51.720Z,0.80
2022-08-24T00:52:56.622Z,0.90
2022-08-24T00:58:02.000Z,0.95
2022-08-24T01:03:05.225Z,0.80
2022-08-24T01:08:07.961Z,0.70
2022-08-24T01:13:10.426Z,0.80
2022-08-24T01:18:33.380Z,0.85
2022-08-24T01:23:55.228Z,1.02
2022-08-24T01:29:00.252Z,0.70
2022-08-24T01:34:02.227Z,1.00
2022-08-24T01:39:14.953Z,0.65
2022-08-24T01:44:16.478Z,0.82
2022-08-24T01:49:18.000Z,0.60
2022-08-24T01:54:19.738Z,0.77
2022-08-24T01:59:21.274Z,0.80
2022-08-24T02:04:23.198Z,0.77
2022-08-24T02:09:25.704Z,0.88
2022-08-24T02:14:34.153Z,1.27
2022-08-24T02:19:36.460Z,0.82
2022-08-24T02:24:37.925Z,0.80
2022-08-24T02:29:39.404Z,1.05
2022-08-24T02:34:40.937Z,0.70
2022-08-24T02:39:42.428Z,1.08
2022-08-24T02:44:43.971Z,1.08
2022-08-24T02:49:45.632Z,1.08
2022-08-24T02:54:47.263Z,1.00
2022-08-24T02:59:48.998Z,0.75
2022-08-24T03:04:50.512Z,0.95
2022-08-24T03:09:51.981Z,0.90
2022-08-24T03:14:53.858Z,1.10
2022-08-24T03:19:55.645Z,0.80
2022-08-24T03:24:57.812Z,0.90
2022-08-24T03:29:59.290Z,0.73
2022-08-24T03:35:02.559Z,0.93
2022-08-24T03:40:04.948Z,0.82
2022-08-24T03:45:07.441Z,1.00
2022-08-24T03:50:10.007Z,0.88
2022-08-24T03:55:11.590Z,0.98
2022-08-24T04:00:13.737Z,0.95
2022-08-24T04:05:15.262Z,1.08
2022-08-24T04:10:16.741Z,0.98
2022-08-24T04:15:18.821Z,1.08
2022-08-24T04:20:20.281Z,1.02
2022-08-24T04:25:25.054Z,1.08
2022-08-24T04:30:26.736Z,1.20
2022-08-24T04:35:28.214Z,1.23
2022-08-24T04:40:30.419Z,1.10
2022-08-24T04:45:32.473Z,0.80
2022-08-24T04:50:35.543Z,1.10
2022-08-24T04:55:47.092Z,0.85
2022-08-24T05:00:48.665Z,1.30
2022-08-24T05:05:50.925Z,0.93
2022-08-24T05:10:52.434Z,1.20
2022-08-24T05:15:54.010Z,0.80
2022-08-24T05:20:56.095Z,0.80
2022-08-24T05:26:08.062Z,0.90
2022-08-24T05:31:13.950Z,1.17
2022-08-24T05:36:21.689Z,0.85
2022-08-24T05:41:23.904Z,0.63
2022-08-24T05:46:25.650Z,0.70
2022-08-24T05:51:29.552Z,0.70
2022-08-24T05:56:32.108Z,0.60
2022-08-24T06:01:33.939Z,0.45
2022-08-24T06:06:35.831Z,0.50
2022-08-24T06:11:38.425Z,0.50
2022-08-24T06:16:41.793Z,0.50
2022-08-24T06:21:44.457Z,0.57
2022-08-24T06:27:04.406Z,0.60
2022-08-24T06:32:05.916Z,0.60
2022-08-24T06:37:07.382Z,0.50
2022-08-24T06:42:09.148Z,0.50
2022-08-24T06:47:11.384Z,0.52
2022-08-24T06:52:13.066Z,0.43
2022-08-24T06:57:14.596Z,0.40
2022-08-24T07:02:18.936Z,0.32
2022-08-24T07:07:20.438Z,0.47
2022-08-24T07:12:21.967Z,0.47
2022-08-24T07:17:23.510Z,0.47
2022-08-24T07:22:24.969Z,0.22
2022-08-24T07:27:26.429Z,0.68
2022-08-24T07:32:28.922Z,0.40
2022-08-24T07:37:41.088Z,0.20
2022-08-24T07:42:43.174Z,0.30
2022-08-24T07:47:54.688Z,0.45
2022-08-24T07:52:57.536Z,0.38
2022-08-24T07:57:59.664Z,0.20
2022-08-24T08:03:03.460Z,0.30
2022-08-24T08:08:05.277Z,0.40
2022-08-24T08:13:07.457Z,0.30
2022-08-24T08:18:09.170Z,0.30
2022-08-24T08:23:29.114Z,0.30
2022-08-24T08:28:36.139Z,0.30
2022-08-24T08:33:37.786Z,0.28
2022-08-24T08:38:39.944Z,0.30
2022-08-24T08:43:45.962Z,0.38
2022-08-24T08:48:57.281Z,0.20
2022-08-24T08:54:18.062Z,0.30
2022-08-24T08:59:42.634Z,0.30
2022-08-24T09:05:13.620Z,0.43
2022-08-24T09:15:25.559Z,0.50
2022-08-24T09:20:41.701Z,0.40
2022-08-24T09:25:51.865Z,0.40
2022-08-24T09:31:13.466Z,0.40
2022-08-24T09:36:26.257Z,0.22
2022-08-24T09:41:49.258Z,0.50
2022-08-24T09:46:53.460Z,0.30
2022-08-24T09:51:54.970Z,0.25
2022-08-24T09:57:17.281Z,0.30
2022-08-24T10:02:27.576Z,0.13
2022-08-24T10:07:36.440Z,0.70
2022-08-24T10:12:40.714Z,0.47
2022-08-24T10:17:54.938Z,0.45
2022-08-24T10:23:14.934Z,0.30
2022-08-24T10:28:31.669Z,0.20
2022-08-24T10:33:33.097Z,0.43
2022-08-24T10:38:59.009Z,0.35
2022-08-24T10:44:05.426Z,0.25
2022-08-24T10:49:33.488Z,0.20
2022-08-24T10:54:36.038Z,0.30
2022-08-24T10:59:57.489Z,0.43
2022-08-24T11:05:05.945Z,0.45
2022-08-24T11:10:09.024Z,0.43
2022-08-24T11:15:20.598Z,0.30
2022-08-24T11:20:26.849Z,0.25
2022-08-24T11:25:30.198Z,0.50
2022-08-24T11:30:31.802Z,0.45
2022-08-24T11:35:36.030Z,0.38
2022-08-24T11:40:40.054Z,0.68
2022-08-24T11:46:19.892Z,0.35
2022-08-24T11:51:39.758Z,0.38
2022-08-24T11:56:46.126Z,0.40
2022-08-24T12:01:51.446Z,0.40
2022-08-24T12:06:55.581Z,0.40
2022-08-24T12:12:05.481Z,0.55
2022-08-24T12:17:26.102Z,0.30
2022-08-24T12:22:28.515Z,0.40
2022-08-24T12:27:32.362Z,0.40
2022-08-24T12:32:40.876Z,0.40
2022-08-24T12:37:44.186Z,0.30
2022-08-24T12:42:58.880Z,0.60
2022-08-24T12:48:00.457Z,0.40
2022-08-24T12:53:18.476Z,0.40
2022-08-24T12:58:35.138Z,0.35
2022-08-24T13:03:38.953Z,0.40
2022-08-24T13:08:42.763Z,0.68
2022-08-24T13:14:05.739Z,0.50
2022-08-24T13:19:13.402Z,0.47
2022-08-24T13:24:33.193Z,0.40
2022-08-24T13:29:34.910Z,0.55
2022-08-24T13:34:39.085Z,0.50
2022-08-24T13:40:02.309Z,0.50
2022-08-24T13:45:16.297Z,0.40
2022-08-24T13:50:30.010Z,0.50
2022-08-24T13:55:35.893Z,0.32
2022-08-24T14:00:41.000Z,0.40
2022-08-24T14:05:57.753Z,0.32
2022-08-24T14:11:18.131Z,0.30
2022-08-24T14:21:49.202Z,0.40
2022-08-24T14:26:56.158Z,0.40
2022-08-24T14:32:11.649Z,0.25
2022-08-24T14:37:14.198Z,0.28
2022-08-24T14:42:21.815Z,0.60
2022-08-24T14:47:33.982Z,0.20
2022-08-24T14:52:47.534Z,0.47
2022-08-24T14:57:49.070Z,0.20
2022-08-24T15:03:02.773Z,0.20
2022-08-24T15:08:11.562Z,0.30
2022-08-24T15:13:25.590Z,0.40
2022-08-24T15:18:37.244Z,0.47
2022-08-24T15:23:53.926Z,0.38
2022-08-24T15:28:56.927Z,0.60
2022-08-24T15:34:00.095Z,0.32
2022-08-24T15:39:02.952Z,0.45
2022-08-24T15:44:10.310Z,0.30
2022-08-24T15:49:20.988Z,0.20
2022-08-24T15:54:24.801Z,0.40
2022-08-24T15:59:28.953Z,0.15
2022-08-24T16:04:42.776Z,0.30
2022-08-24T16:09:44.712Z,0.40
2022-08-24T16:14:47.680Z,0.22
2022-08-24T16:19:54.804Z,0.20
2022-08-24T16:25:28.557Z,0.50
2022-08-24T16:30:44.852Z,0.28
2022-08-24T16:35:50.386Z,0.30
2022-08-24T16:40:51.957Z,0.40
2022-08-24T16:45:54.209Z,0.50
2022-08-24T16:50:56.729Z,0.70
2022-08-24T16:55:58.525Z,0.70
2022-08-24T17:01:00.485Z,0.70
2022-08-24T17:06:02.147Z,0.68
2022-08-24T17:11:05.007Z,0.50
2022-08-24T17:16:06.818Z,0.52
2022-08-24T17:21:08.826Z,0.30
2022-08-24T17:26:19.232Z,0.50
2022-08-24T17:31:24.841Z,0.40
2022-08-24T17:36:26.661Z,0.50
2022-08-24T17:41:34.737Z,0.28
2022-08-24T17:46:36.798Z,0.50
2022-08-24T17:51:38.337Z,0.50
2022-08-24T17:56:42.874Z,0.63
2022-08-24T18:01:44.657Z,0.52
2022-08-24T18:06:46.622Z,0.60
2022-08-24T18:11:48.110Z,0.50
2022-08-24T18:16:54.148Z,0.43
2022-08-24T18:21:58.500Z,0.40
2022-08-24T18:27:00.608Z,0.50
2022-08-24T18:32:02.147Z,0.68
2022-08-24T18:37:04.081Z,0.50
2022-08-24T18:42:06.690Z,0.43
2022-08-24T18:47:08.333Z,0.47
2022-08-24T18:52:10.544Z,0.43
2022-08-24T18:57:12.114Z,0.40
2022-08-24T19:02:35.809Z,0.50
2022-08-24T19:07:39.463Z,0.60
2022-08-24T19:12:46.823Z,0.70
2022-08-24T19:17:48.666Z,0.90
2022-08-24T19:22:50.196Z,0.40
2022-08-24T19:27:54.966Z,0.70
2022-08-24T19:32:57.265Z,0.80
2022-08-24T19:37:58.765Z,0.70
2022-08-24T19:43:01.737Z,0.70
2022-08-24T19:48:04.510Z,0.63
2022-08-24T19:53:06.393Z,0.75
2022-08-24T19:58:28.573Z,0.60
2022-08-24T20:03:30.053Z,0.73
2022-08-24T20:08:31.564Z,0.65
2022-08-24T20:13:33.116Z,0.60
2022-08-24T20:18:35.301Z,0.60
2022-08-24T20:23:36.871Z,0.50
2022-08-24T20:28:42.955Z,0.60
2022-08-24T20:33:44.787Z,0.88
2022-08-24T20:38:46.250Z,0.77
2022-08-24T20:43:49.869Z,0.63
2022-08-24T20:48:55.668Z,0.80
2022-08-24T20:53:57.647Z,0.60
2022-08-24T20:59:03.126Z,0.65
2022-08-24T21:04:05.585Z,0.50
2022-08-24T21:09:08.060Z,0.80
2022-08-24T21:14:15.617Z,0.70
2022-08-24T21:19:17.894Z,0.90
2022-08-24T21:24:19.532Z,0.63
2022-08-24T21:29:21.349Z,0.80
2022-08-24T21:34:41.378Z,0.70
2022-08-24T21:39:43.501Z,0.50
2022-08-24T21:44:46.168Z,0.73
2022-08-24T21:49:48.870Z,1.10
2022-08-24T21:54:50.642Z,0.70
2022-08-24T21:59:52.108Z,0.60
2022-08-24T22:04:56.874Z,0.70
2022-08-24T22:09:58.673Z,0.68
2022-08-24T22:15:00.477Z,0.93
2022-08-24T22:20:02.373Z,0.63
2022-08-24T22:25:04.990Z,0.80
2022-08-24T22:30:07.162Z,0.60
2022-08-24T22:35:08.893Z,0.60
2022-08-24T22:40:12.715Z,0.65
2022-08-24T22:45:14.475Z,0.70
2022-08-24T22:50:16.206Z,0.80
2022-08-24T22:55:17.733Z,0.75
2022-08-24T23:00:20.566Z,0.70
2022-08-24T23:05:22.078Z,0.80
2022-08-24T23:10:24.566Z,0.73
2022-08-24T23:15:26.276Z,0.80
2022-08-24T23:20:27.881Z,1.00
2022-08-24T23:25:29.356Z,0.88
2022-08-24T23:30:30.846Z,0.95
2022-08-24T23:35:32.350Z,0.82
2022-08-24T23:40:33.841Z,0.90
2022-08-24T23:45:38.861Z,0.75
2022-08-24T23:50:44.429Z,0.65
2022-08-24T23:55:46.414Z,1.95
